createdAt,value
2017-03-01T00:00:28.673Z,74.76
2017-03-01T00:01:28.789Z,74.45
2017-03-01T00:02:28.960Z,73.34
2017-03-01T00:03:39.250Z,72.83
2017-03-01T00:04:33.705Z,72.51
2017-03-01T00:05:33.676Z,72.14
2017-03-01T00:06:28.457Z,71.73
2017-03-01T00:07:33.536Z,71.47
2017-03-01T00:08:28.977Z,70.79
2017-03-01T00:09:29.385Z,71.24
2017-03-01T00:10:28.510Z,71.30
2017-03-01T00:11:33.797Z,70.62
2017-03-01T00:12:28.060Z,71.12
2017-03-01T00:13:28.760Z,71.21
2017-03-01T00:14:29.478Z,71.20
2017-03-01T00:15:28.507Z,71.30
2017-03-01T00:16:30.043Z,71.31
2017-03-01T00:17:28.257Z,70.81
2017-03-01T00:18:28.376Z,70.91
2017-03-01T00:19:28.208Z,70.50
2017-03-01T00:20:23.564Z,70.90
2017-03-01T00:21:28.665Z,72.02
2017-03-01T00:22:28.526Z,71.48
2017-03-01T00:23:28.290Z,71.65
2017-03-01T00:24:29.418Z,70.82
2017-03-01T00:25:26.083Z,70.33
2017-03-01T00:26:28.124Z,71.11
2017-03-01T00:27:28.424Z,73.00
2017-03-01T00:28:29.866Z,72.55
2017-03-01T00:29:28.712Z,73.73
2017-03-01T00:30:42.917Z,75.78
2017-03-01T00:31:53.571Z,77.85
2017-03-01T00:32:50.458Z,82.10
2017-03-01T00:33:55.308Z,81.69
2017-03-01T00:34:33.652Z,81.43
2017-03-01T00:35:30.848Z,82.36
2017-03-01T00:36:33.660Z,82.00
2017-03-01T00:37:29.878Z,84.05
2017-03-01T00:38:29.934Z,84.27
2017-03-01T00:39:27.956Z,83.01
2017-03-01T00:40:40.605Z,81.84
2017-03-01T00:41:28.736Z,81.62
2017-03-01T00:42:28.130Z,81.48
2017-03-01T00:43:28.194Z,80.91
2017-03-01T00:44:29.321Z,81.69
2017-03-01T00:45:28.442Z,81.93
2017-03-01T00:46:29.579Z,81.85
2017-03-01T00:47:29.334Z,81.41
2017-03-01T00:48:28.459Z,81.10
2017-03-01T00:49:34.222Z,81.12
2017-03-01T00:50:26.108Z,81.73
2017-03-01T00:51:28.605Z,82.07
2017-03-01T00:52:28.845Z,81.52
2017-03-01T00:53:28.959Z,81.25
2017-03-01T00:54:33.001Z,83.08
2017-03-01T00:55:28.532Z,82.55
2017-03-01T00:56:33.424Z,82.47
2017-03-01T00:57:24.181Z,81.85
2017-03-01T00:58:34.494Z,81.52
2017-03-01T00:59:28.883Z,81.20
2017-03-01T01:00:29.931Z,81.15
2017-03-01T01:01:28.979Z,81.03
2017-03-01T01:02:28.711Z,81.47
2017-03-01T01:03:35.734Z,81.94
2017-03-01T01:04:33.592Z,81.45
2017-03-01T01:05:28.824Z,81.55
2017-03-01T01:06:28.937Z,81.63
2017-03-01T01:07:36.893Z,81.83
2017-03-01T01:08:35.033Z,82.26
2017-03-01T01:09:23.867Z,82.20
2017-03-01T01:10:47.573Z,82.57
2017-03-01T01:11:28.700Z,82.64
2017-03-01T01:12:29.234Z,83.22
2017-03-01T01:13:29.395Z,83.04
2017-03-01T01:14:29.523Z,82.32
2017-03-01T01:15:28.635Z,82.60
2017-03-01T01:16:28.811Z,81.70
2017-03-01T01:17:24.015Z,82.64
2017-03-01T01:18:20.021Z,83.06
2017-03-01T01:19:34.614Z,82.81
2017-03-01T01:20:26.302Z,81.89
2017-03-01T01:21:28.729Z,82.01
2017-03-01T01:22:22.896Z,82.36
2017-03-01T01:23:29.052Z,81.69
2017-03-01T01:24:32.262Z,81.49
2017-03-01T01:25:28.287Z,81.81
2017-03-01T01:26:33.224Z,81.01
2017-03-01T01:27:26.075Z,80.88
2017-03-01T01:28:28.224Z,81.26
2017-03-01T01:29:29.309Z,81.10
2017-03-01T01:30:33.479Z,80.95
2017-03-01T01:31:32.738Z,80.34
2017-03-01T01:32:28.924Z,79.76
2017-03-01T01:33:33.635Z,80.62
2017-03-01T01:34:28.281Z,80.19
2017-03-01T01:35:38.714Z,79.33
2017-03-01T01:36:23.073Z,78.94
2017-03-01T01:37:38.896Z,79.19
2017-03-01T01:38:28.751Z,77.86
2017-03-01T01:39:29.525Z,78.16
2017-03-01T01:40:28.754Z,77.70
2017-03-01T01:41:31.521Z,77.55
2017-03-01T01:42:37.687Z,77.88
2017-03-01T01:43:28.685Z,76.57
2017-03-01T01:44:28.270Z,77.62
2017-03-01T01:45:22.851Z,77.30
2017-03-01T01:46:38.901Z,76.81
2017-03-01T01:47:28.822Z,76.61
2017-03-01T01:48:24.529Z,75.89
2017-03-01T01:49:28.653Z,75.64
2017-03-01T01:50:28.794Z,75.19
2017-03-01T01:51:29.302Z,74.93
2017-03-01T01:52:28.333Z,75.28
2017-03-01T01:53:28.233Z,74.85
2017-03-01T01:54:26.656Z,75.46
2017-03-01T01:55:31.891Z,75.49
2017-03-01T01:56:33.400Z,75.10
2017-03-01T01:57:24.758Z,75.33
2017-03-01T01:58:34.041Z,74.30
2017-03-01T01:59:29.334Z,74.34
2017-03-01T02:00:30.464Z,75.44
2017-03-01T02:01:28.596Z,75.70
2017-03-01T02:02:39.095Z,74.70
2017-03-01T02:03:28.259Z,74.10
2017-03-01T02:04:28.380Z,74.14
2017-03-01T02:05:28.181Z,74.33
2017-03-01T02:06:22.727Z,74.60
2017-03-01T02:07:28.702Z,75.08
2017-03-01T02:08:27.134Z,73.78
2017-03-01T02:09:38.861Z,74.42
2017-03-01T02:10:26.852Z,72.90
2017-03-01T02:11:28.764Z,73.39
2017-03-01T02:12:28.877Z,73.25
2017-03-01T02:13:26.702Z,73.17
2017-03-01T02:14:28.823Z,72.71
2017-03-01T02:15:24.191Z,73.01
2017-03-01T02:16:26.173Z,73.78
2017-03-01T02:17:29.185Z,73.16
2017-03-01T02:18:33.452Z,73.56
2017-03-01T02:19:23.965Z,73.22
2017-03-01T02:20:38.188Z,72.33
2017-03-01T02:21:28.693Z,72.69
2017-03-01T02:22:28.146Z,72.81
2017-03-01T02:23:27.970Z,73.09
2017-03-01T02:24:32.740Z,72.53
2017-03-01T02:25:28.848Z,72.88
2017-03-01T02:26:29.558Z,72.84
2017-03-01T02:27:28.611Z,73.00
2017-03-01T02:28:28.338Z,72.79
2017-03-01T02:29:28.468Z,71.92
2017-03-01T02:30:28.583Z,71.87
2017-03-01T02:31:30.829Z,71.68
2017-03-01T02:32:28.830Z,72.28
2017-03-01T02:33:29.893Z,72.56
2017-03-01T02:34:36.737Z,72.61
2017-03-01T02:35:23.351Z,73.52
2017-03-01T02:36:37.284Z,73.12
2017-03-01T02:37:22.908Z,71.90
2017-03-01T02:38:49.926Z,72.41
2017-03-01T02:39:38.716Z,71.53
2017-03-01T02:40:26.203Z,72.11
2017-03-01T02:41:33.716Z,71.08
2017-03-01T02:42:32.116Z,71.92
2017-03-01T02:43:29.908Z,72.05
2017-03-01T02:44:33.215Z,72.07
2017-03-01T02:45:24.485Z,71.82
2017-03-01T02:46:29.636Z,70.99
2017-03-01T02:47:28.805Z,71.30
2017-03-01T02:48:19.701Z,70.65
2017-03-01T02:49:34.634Z,70.82
2017-03-01T02:50:38.818Z,70.35
2017-03-01T02:51:22.857Z,70.88
2017-03-01T02:52:38.127Z,71.14
2017-03-01T02:53:40.866Z,71.42
2017-03-01T02:54:28.978Z,71.26
2017-03-01T02:55:29.008Z,71.08
2017-03-01T02:56:28.110Z,70.51
2017-03-01T02:57:33.276Z,71.23
2017-03-01T02:58:38.690Z,71.29
2017-03-01T02:59:29.187Z,71.40
2017-03-01T03:00:28.879Z,71.39
2017-03-01T03:01:29.014Z,71.32
2017-03-01T03:02:31.755Z,70.61
2017-03-01T03:03:38.252Z,71.16
2017-03-01T03:04:28.391Z,71.13
2017-03-01T03:05:28.518Z,71.03
2017-03-01T03:06:26.819Z,70.09
2017-03-01T03:07:28.021Z,70.96
2017-03-01T03:08:28.443Z,71.64
2017-03-01T03:09:24.214Z,70.64
2017-03-01T03:10:41.045Z,71.68
2017-03-01T03:11:33.199Z,70.58
2017-03-01T03:12:28.273Z,71.30
2017-03-01T03:13:29.967Z,70.96
2017-03-01T03:14:26.439Z,70.04
2017-03-01T03:15:28.525Z,70.07
2017-03-01T03:16:29.628Z,70.31
2017-03-01T03:17:23.136Z,70.42
2017-03-01T03:18:28.554Z,69.64
2017-03-01T03:19:44.236Z,69.78
2017-03-01T03:20:28.832Z,68.49
2017-03-01T03:21:28.963Z,69.16
2017-03-01T03:22:28.037Z,68.94
2017-03-01T03:23:23.109Z,68.88
2017-03-01T03:24:33.423Z,69.04
2017-03-01T03:25:28.237Z,67.89
2017-03-01T03:26:28.318Z,67.71
2017-03-01T03:27:28.988Z,67.33
2017-03-01T03:29:28.846Z,68.02
2017-03-01T03:30:39.131Z,67.63
2017-03-01T03:31:28.410Z,67.98
2017-03-01T03:32:28.551Z,67.22
2017-03-01T03:33:32.803Z,66.95
2017-03-01T03:34:28.871Z,67.05
2017-03-01T03:35:23.685Z,67.06
2017-03-01T03:36:29.704Z,66.83
2017-03-01T03:37:28.837Z,66.54
2017-03-01T03:38:33.266Z,66.43
2017-03-01T03:39:28.420Z,67.48
2017-03-01T03:40:33.146Z,66.99
2017-03-01T03:41:29.375Z,66.82
2017-03-01T03:42:33.570Z,67.28
2017-03-01T03:43:29.705Z,66.57
2017-03-01T03:44:28.800Z,65.57
2017-03-01T03:45:28.932Z,65.79
2017-03-01T03:46:33.741Z,65.71
2017-03-01T03:47:28.977Z,65.50
2017-03-01T03:48:28.534Z,64.95
2017-03-01T03:49:49.718Z,65.51
2017-03-01T03:50:26.198Z,65.53
2017-03-01T03:51:33.286Z,65.16
2017-03-01T03:52:33.289Z,65.72
2017-03-01T03:53:28.451Z,65.91
2017-03-01T03:54:33.730Z,64.71
2017-03-01T03:55:28.314Z,64.99
2017-03-01T03:56:32.091Z,64.96
2017-03-01T03:57:28.256Z,65.36
2017-03-01T03:58:28.365Z,64.30
2017-03-01T03:59:28.507Z,64.77
2017-03-01T04:00:28.633Z,64.67
2017-03-01T04:01:37.329Z,65.44
2017-03-01T04:02:24.486Z,64.93
2017-03-01T04:03:28.538Z,65.37
2017-03-01T04:04:28.664Z,64.44
2017-03-01T04:05:34.735Z,64.59
2017-03-01T04:06:29.477Z,65.39
2017-03-01T04:07:28.695Z,64.94
2017-03-01T04:08:28.751Z,65.90
2017-03-01T04:09:23.348Z,65.33
2017-03-01T04:10:32.417Z,65.82
2017-03-01T04:11:51.561Z,65.30
2017-03-01T04:12:50.135Z,64.53
2017-03-01T04:13:49.698Z,65.26
2017-03-01T04:14:25.361Z,66.39
2017-03-01T04:15:34.449Z,65.46
2017-03-01T04:16:24.288Z,65.27
2017-03-01T04:17:23.938Z,65.22
2017-03-01T04:18:29.626Z,65.72
2017-03-01T04:19:29.779Z,64.14
2017-03-01T04:20:24.654Z,65.22
2017-03-01T04:21:29.715Z,65.52
2017-03-01T04:22:24.933Z,64.97
2017-03-01T04:23:28.163Z,65.08
2017-03-01T04:24:47.800Z,65.08
2017-03-01T04:25:38.081Z,65.74
2017-03-01T04:26:29.769Z,65.42
2017-03-01T04:27:29.903Z,66.17
2017-03-01T04:28:24.031Z,66.08
2017-03-01T04:29:29.147Z,66.92
2017-03-01T04:30:28.245Z,67.12
2017-03-01T04:31:33.568Z,67.29
2017-03-01T04:32:28.705Z,65.18
2017-03-01T04:33:28.688Z,65.81
2017-03-01T04:34:28.660Z,65.03
2017-03-01T04:35:23.862Z,65.56
2017-03-01T04:36:27.657Z,66.20
2017-03-01T04:37:27.739Z,65.71
2017-03-01T04:38:29.812Z,65.45
2017-03-01T04:39:29.838Z,66.06
2017-03-01T04:40:29.942Z,65.39
2017-03-01T04:41:28.662Z,66.11
2017-03-01T04:42:28.703Z,65.95
2017-03-01T04:43:28.803Z,65.15
2017-03-01T04:44:28.842Z,65.48
2017-03-01T04:45:31.525Z,65.32
2017-03-01T04:46:28.402Z,65.55
2017-03-01T04:47:33.518Z,65.95
2017-03-01T04:48:29.217Z,65.98
2017-03-01T04:49:32.022Z,66.02
2017-03-01T04:50:37.187Z,67.00
2017-03-01T04:51:28.303Z,65.58
2017-03-01T04:52:24.105Z,66.59
2017-03-01T04:53:30.142Z,65.74
2017-03-01T04:54:28.271Z,65.69
2017-03-01T04:55:29.969Z,66.42
2017-03-01T04:56:23.139Z,65.57
2017-03-01T04:57:38.666Z,65.71
2017-03-01T04:58:44.564Z,65.75
2017-03-01T04:59:28.689Z,65.59
2017-03-01T05:00:24.397Z,65.51
2017-03-01T05:01:24.957Z,65.07
2017-03-01T05:02:29.458Z,65.70
2017-03-01T05:03:31.669Z,65.74
2017-03-01T05:04:28.789Z,65.77
2017-03-01T05:05:30.400Z,65.81
2017-03-01T05:06:28.482Z,65.62
2017-03-01T05:07:33.495Z,65.74
2017-03-01T05:08:28.871Z,65.41
2017-03-01T05:09:28.998Z,64.78
2017-03-01T05:10:27.648Z,65.59
2017-03-01T05:11:32.027Z,65.97
2017-03-01T05:12:28.773Z,65.65
2017-03-01T05:13:28.513Z,66.06
2017-03-01T05:14:28.633Z,65.37
2017-03-01T05:15:23.737Z,65.40
2017-03-01T05:16:28.082Z,65.76
2017-03-01T05:17:28.258Z,65.45
2017-03-01T05:18:38.096Z,65.12
2017-03-01T05:19:38.136Z,65.17
2017-03-01T05:20:23.683Z,63.77
2017-03-01T05:21:26.185Z,65.07
2017-03-01T05:22:29.810Z,64.79
2017-03-01T05:23:42.301Z,64.66
2017-03-01T05:24:33.158Z,63.91
2017-03-01T05:26:32.764Z,64.26
2017-03-01T05:27:29.972Z,64.26
2017-03-01T05:28:33.490Z,64.94
2017-03-01T05:29:24.521Z,64.43
2017-03-01T05:30:29.430Z,64.49
2017-03-01T05:31:47.546Z,65.11
2017-03-01T05:32:28.721Z,64.22
2017-03-01T05:33:43.650Z,64.86
2017-03-01T05:34:31.529Z,64.46
2017-03-01T05:35:33.250Z,64.88
2017-03-01T05:36:32.019Z,63.78
2017-03-01T05:37:28.266Z,63.86
2017-03-01T05:38:23.742Z,63.97
2017-03-01T05:39:27.853Z,64.99
2017-03-01T05:40:32.571Z,64.23
2017-03-01T05:41:26.385Z,63.96
2017-03-01T05:42:29.442Z,64.11
2017-03-01T05:43:23.054Z,63.94
2017-03-01T05:44:28.143Z,64.70
2017-03-01T05:45:28.638Z,64.03
2017-03-01T05:46:22.988Z,64.27
2017-03-01T05:47:27.639Z,64.28
2017-03-01T05:48:31.306Z,63.78
2017-03-01T05:49:29.480Z,63.46
2017-03-01T05:50:28.608Z,63.57
2017-03-01T05:51:28.360Z,63.90
2017-03-01T05:52:28.678Z,64.05
2017-03-01T05:53:34.788Z,63.65
2017-03-01T05:54:28.940Z,63.40
2017-03-01T05:55:32.001Z,63.37
2017-03-01T05:56:25.923Z,63.99
2017-03-01T05:57:33.170Z,63.82
2017-03-01T05:58:28.687Z,62.94
2017-03-01T05:59:36.022Z,63.56
2017-03-01T06:00:24.253Z,63.77
2017-03-01T06:01:29.041Z,62.94
2017-03-01T06:02:28.188Z,62.37
2017-03-01T06:03:33.471Z,62.33
2017-03-01T06:04:38.743Z,62.74
2017-03-01T06:05:33.672Z,62.40
2017-03-01T06:06:28.933Z,62.86
2017-03-01T06:07:28.653Z,63.13
2017-03-01T06:08:29.340Z,62.85
2017-03-01T06:09:28.448Z,61.92
2017-03-01T06:10:28.502Z,62.73
2017-03-01T06:11:29.392Z,62.02
2017-03-01T06:12:23.488Z,62.16
2017-03-01T06:13:28.750Z,62.45
2017-03-01T06:14:28.130Z,62.81
2017-03-01T06:15:38.327Z,61.91
2017-03-01T06:16:27.932Z,62.36
2017-03-01T06:17:29.798Z,62.75
2017-03-01T06:18:27.798Z,63.30
2017-03-01T06:19:33.236Z,62.02
2017-03-01T06:20:28.472Z,62.55
2017-03-01T06:22:33.454Z,62.88
2017-03-01T06:23:28.316Z,63.09
2017-03-01T06:24:28.439Z,62.87
2017-03-01T06:25:37.308Z,62.31
2017-03-01T06:26:43.109Z,61.97
2017-03-01T06:28:34.776Z,63.40
2017-03-01T06:29:23.915Z,62.66
2017-03-01T06:30:33.588Z,62.50
2017-03-01T06:31:27.887Z,63.16
2017-03-01T06:32:27.786Z,62.72
2017-03-01T06:33:33.355Z,62.74
2017-03-01T06:34:28.225Z,63.33
2017-03-01T06:35:28.356Z,63.32
2017-03-01T06:36:23.049Z,63.21
2017-03-01T06:37:28.160Z,63.11
2017-03-01T06:38:28.280Z,62.53
2017-03-01T06:39:34.799Z,62.52
2017-03-01T06:40:32.813Z,62.75
2017-03-01T06:41:25.357Z,63.02
2017-03-01T06:42:29.006Z,62.87
2017-03-01T06:43:29.978Z,63.26
2017-03-01T06:44:29.035Z,62.61
2017-03-01T06:45:37.080Z,62.77
2017-03-01T06:46:27.884Z,62.67
2017-03-01T06:47:35.082Z,62.62
2017-03-01T06:48:35.109Z,62.79
2017-03-01T06:49:28.532Z,62.57
2017-03-01T06:50:33.313Z,62.89
2017-03-01T06:51:33.399Z,62.64
2017-03-01T06:52:35.093Z,62.68
2017-03-01T06:53:27.824Z,62.48
2017-03-01T06:54:33.020Z,61.90
2017-03-01T06:55:42.825Z,61.96
2017-03-01T06:56:28.404Z,62.35
2017-03-01T06:57:22.779Z,62.17
2017-03-01T06:58:22.826Z,62.09
2017-03-01T06:59:33.124Z,61.63
2017-03-01T07:00:22.844Z,62.06
2017-03-01T07:01:22.847Z,62.56
2017-03-01T07:02:28.584Z,62.41
2017-03-01T07:03:23.085Z,63.55
2017-03-01T07:04:38.850Z,63.32
2017-03-01T07:05:33.261Z,63.88
2017-03-01T07:06:29.226Z,64.15
2017-03-01T07:08:33.519Z,63.67
2017-03-01T07:09:24.400Z,63.78
2017-03-01T07:10:28.506Z,63.71
2017-03-01T07:11:33.341Z,64.04
2017-03-01T07:12:29.828Z,64.63
2017-03-01T07:13:30.103Z,65.07
2017-03-01T07:14:23.671Z,65.44
2017-03-01T07:15:23.991Z,65.37
2017-03-01T07:16:34.204Z,65.57
2017-03-01T07:17:34.316Z,65.42
2017-03-01T07:18:23.686Z,65.38
2017-03-01T07:19:35.799Z,65.20
2017-03-01T07:20:34.408Z,64.97
2017-03-01T07:21:27.613Z,65.23
2017-03-01T07:24:28.896Z,65.18
2017-03-01T07:25:33.233Z,63.97
2017-03-01T07:26:28.419Z,64.03
2017-03-01T07:27:27.852Z,63.93
2017-03-01T07:28:28.249Z,63.67
2017-03-01T07:29:27.737Z,63.91
2017-03-01T07:30:24.756Z,64.29
2017-03-01T07:31:28.888Z,65.08
2017-03-01T07:32:28.923Z,65.41
2017-03-01T07:33:43.879Z,65.34
2017-03-01T07:34:30.035Z,65.12
2017-03-01T07:35:28.138Z,65.37
2017-03-01T07:36:39.493Z,65.86
2017-03-01T07:37:28.717Z,66.32
2017-03-01T07:38:37.441Z,66.07
2017-03-01T07:39:26.562Z,65.75
2017-03-01T07:40:31.902Z,66.08
2017-03-01T07:41:29.051Z,65.65
2017-03-01T07:42:31.829Z,65.67
2017-03-01T07:43:28.931Z,65.16
2017-03-01T07:44:27.200Z,65.45
2017-03-01T07:45:35.765Z,65.44
2017-03-01T07:46:28.929Z,65.42
2017-03-01T07:47:28.056Z,65.84
2017-03-01T07:48:29.767Z,65.69
2017-03-01T07:49:26.766Z,65.95
2017-03-01T07:50:25.219Z,65.79
2017-03-01T07:51:28.360Z,65.40
2017-03-01T07:52:33.802Z,65.31
2017-03-01T07:53:23.433Z,64.91
2017-03-01T07:54:24.147Z,65.43
2017-03-01T07:55:24.998Z,66.10
2017-03-01T07:56:34.217Z,65.89
2017-03-01T07:57:28.401Z,66.04
2017-03-01T07:58:23.070Z,66.02
2017-03-01T07:59:28.935Z,66.02
2017-03-01T08:00:24.124Z,66.03
2017-03-01T08:01:22.757Z,67.53
2017-03-01T08:02:18.682Z,66.45
2017-03-01T08:03:29.816Z,65.65
2017-03-01T08:04:32.931Z,66.64
2017-03-01T08:05:28.703Z,67.06
2017-03-01T08:06:23.978Z,67.85
2017-03-01T08:07:28.181Z,66.79
2017-03-01T08:09:28.059Z,68.41
2017-03-01T08:10:37.341Z,66.58
2017-03-01T08:11:43.771Z,66.85
2017-03-01T08:12:29.495Z,66.58
2017-03-01T08:13:31.739Z,66.72
2017-03-01T08:14:31.274Z,66.43
2017-03-01T08:16:28.723Z,65.49
2017-03-01T08:17:29.823Z,65.72
2017-03-01T08:18:34.015Z,66.15
2017-03-01T08:19:38.313Z,66.30
2017-03-01T08:20:34.449Z,66.63
2017-03-01T08:21:25.816Z,66.72
2017-03-01T08:22:23.356Z,66.64
2017-03-01T08:23:28.567Z,66.81
2017-03-01T08:24:23.723Z,65.68
2017-03-01T08:25:28.403Z,66.10
2017-03-01T08:26:22.974Z,65.84
2017-03-01T08:27:23.258Z,65.84
2017-03-01T08:28:37.786Z,65.48
2017-03-01T08:29:33.225Z,65.63
2017-03-01T08:31:30.336Z,65.70
2017-03-01T08:32:28.974Z,65.12
2017-03-01T08:33:29.579Z,65.27
2017-03-01T08:34:37.302Z,65.62
2017-03-01T08:35:35.672Z,65.45
2017-03-01T08:36:28.777Z,65.84
2017-03-01T08:37:32.851Z,65.05
2017-03-01T08:38:27.250Z,65.13
2017-03-01T08:39:28.288Z,65.20
2017-03-01T08:40:28.427Z,65.14
2017-03-01T08:41:28.363Z,65.50
2017-03-01T08:42:28.676Z,64.70
2017-03-01T08:43:28.481Z,64.55
2017-03-01T08:44:28.606Z,64.62
2017-03-01T08:45:28.612Z,64.43
2017-03-01T08:46:41.867Z,63.83
2017-03-01T08:47:37.643Z,63.34
2017-03-01T08:48:30.708Z,62.93
2017-03-01T08:49:32.794Z,62.81
2017-03-01T08:50:34.194Z,62.80
2017-03-01T08:51:38.810Z,62.37
2017-03-01T08:52:43.276Z,62.53
2017-03-01T08:53:29.196Z,62.17
2017-03-01T08:54:28.302Z,61.45
2017-03-01T08:55:37.895Z,61.05
2017-03-01T08:56:29.531Z,61.42
2017-03-01T08:57:28.693Z,61.25
2017-03-01T08:58:33.607Z,61.55
2017-03-01T08:59:28.417Z,61.58
2017-03-01T09:00:24.140Z,61.84
2017-03-01T09:01:33.414Z,62.66
2017-03-01T09:02:28.183Z,62.70
2017-03-01T09:03:24.437Z,62.51
2017-03-01T09:04:33.162Z,61.91
2017-03-01T09:05:28.717Z,62.15
2017-03-01T09:06:38.256Z,62.49
2017-03-01T09:07:27.845Z,62.45
2017-03-01T09:08:33.693Z,61.85
2017-03-01T09:09:26.895Z,62.03
2017-03-01T09:10:33.761Z,61.46
2017-03-01T09:11:33.086Z,61.29
2017-03-01T09:12:29.872Z,61.11
2017-03-01T09:13:23.912Z,61.33
2017-03-01T09:14:23.607Z,61.12
2017-03-01T09:15:29.734Z,61.30
2017-03-01T09:16:28.860Z,61.54
2017-03-01T09:17:33.304Z,61.42
2017-03-01T09:18:30.572Z,61.91
2017-03-01T09:19:24.450Z,61.80
2017-03-01T09:20:33.769Z,61.26
2017-03-01T09:21:38.941Z,61.39
2017-03-01T09:22:33.718Z,61.02
2017-03-01T09:23:27.126Z,60.57
2017-03-01T09:24:29.277Z,60.16
2017-03-01T09:25:35.104Z,59.28
2017-03-01T09:26:29.234Z,59.31
2017-03-01T09:27:28.329Z,59.85
2017-03-01T09:28:28.452Z,60.35
2017-03-01T09:29:28.907Z,60.60
2017-03-01T09:30:27.288Z,60.20
2017-03-01T09:31:42.192Z,60.61
2017-03-01T09:32:22.851Z,60.73
2017-03-01T09:33:33.434Z,60.78
2017-03-01T09:34:24.460Z,60.97
2017-03-01T09:35:28.785Z,60.29
2017-03-01T09:36:33.035Z,60.46
2017-03-01T09:37:34.254Z,60.64
2017-03-01T09:38:25.272Z,59.95
2017-03-01T09:39:28.423Z,60.06
2017-03-01T09:40:33.817Z,60.04
2017-03-01T09:41:29.102Z,59.26
2017-03-01T09:42:28.929Z,59.40
2017-03-01T09:43:25.421Z,58.92
2017-03-01T09:44:29.678Z,58.30
2017-03-01T09:45:38.549Z,58.24
2017-03-01T09:46:29.534Z,59.23
2017-03-01T09:47:29.666Z,58.42
2017-03-01T09:48:37.679Z,58.42
2017-03-01T09:49:37.206Z,58.53
2017-03-01T09:50:33.018Z,57.38
2017-03-01T09:51:28.524Z,57.38
2017-03-01T09:52:29.640Z,57.75
2017-03-01T09:53:28.951Z,57.79
2017-03-01T09:54:28.815Z,57.77
2017-03-01T09:55:28.929Z,58.06
2017-03-01T09:56:28.818Z,59.28
2017-03-01T09:57:27.670Z,58.18
2017-03-01T09:58:28.783Z,57.38
2017-03-01T09:59:28.924Z,57.53
2017-03-01T10:00:30.246Z,57.17
2017-03-01T10:01:28.412Z,57.20
2017-03-01T10:02:28.537Z,56.95
2017-03-01T10:03:28.303Z,56.61
2017-03-01T10:04:33.685Z,56.29
2017-03-01T10:05:29.272Z,55.96
2017-03-01T10:06:33.208Z,56.88
2017-03-01T10:07:29.040Z,57.15
2017-03-01T10:08:25.247Z,57.27
2017-03-01T10:09:28.361Z,56.80
2017-03-01T10:10:28.486Z,56.50
2017-03-01T10:11:24.894Z,56.51
2017-03-01T10:12:30.027Z,57.11
2017-03-01T10:13:29.124Z,56.48
2017-03-01T10:14:29.233Z,56.94
2017-03-01T10:15:28.604Z,57.09
2017-03-01T10:16:31.829Z,57.01
2017-03-01T10:17:48.667Z,56.78
2017-03-01T10:18:34.744Z,57.28
2017-03-01T10:19:28.956Z,57.47
2017-03-01T10:20:34.787Z,56.56
2017-03-01T10:21:38.086Z,56.73
2017-03-01T10:22:37.185Z,56.07
2017-03-01T10:23:33.107Z,55.42
2017-03-01T10:24:29.451Z,56.03
2017-03-01T10:25:31.352Z,56.26
2017-03-01T10:26:31.483Z,56.52
2017-03-01T10:27:29.936Z,56.43
2017-03-01T10:28:33.241Z,57.11
2017-03-01T10:29:38.702Z,56.63
2017-03-01T10:30:33.344Z,57.32
2017-03-01T10:31:25.102Z,57.06
2017-03-01T10:32:28.214Z,57.75
2017-03-01T10:33:29.732Z,57.78
2017-03-01T10:34:29.858Z,57.89
2017-03-01T10:35:38.712Z,58.14
2017-03-01T10:36:28.834Z,58.67
2017-03-01T10:37:28.950Z,58.42
2017-03-01T10:38:28.104Z,57.89
2017-03-01T10:39:28.256Z,57.17
2017-03-01T10:40:28.592Z,57.25
2017-03-01T10:41:23.160Z,56.92
2017-03-01T10:42:28.618Z,55.76
2017-03-01T10:43:28.292Z,56.24
2017-03-01T10:44:30.015Z,56.74
2017-03-01T10:45:33.043Z,56.41
2017-03-01T10:46:38.820Z,55.71
2017-03-01T10:47:43.211Z,55.86
2017-03-01T10:48:34.663Z,55.69
2017-03-01T10:49:25.266Z,55.76
2017-03-01T10:50:29.434Z,55.46
2017-03-01T10:51:28.538Z,55.47
2017-03-01T10:52:29.035Z,55.73
2017-03-01T10:53:33.350Z,55.89
2017-03-01T10:54:29.185Z,55.87
2017-03-01T10:55:44.986Z,56.11
2017-03-01T10:56:32.929Z,56.25
2017-03-01T10:57:28.452Z,56.75
2017-03-01T10:58:23.966Z,57.14
2017-03-01T10:59:33.081Z,57.19
2017-03-01T11:00:28.276Z,57.40
2017-03-01T11:01:33.576Z,57.30
2017-03-01T11:02:28.745Z,56.40
2017-03-01T11:03:27.743Z,56.44
2017-03-01T11:04:23.884Z,55.35
2017-03-01T11:05:28.733Z,55.39
2017-03-01T11:06:29.222Z,55.09
2017-03-01T11:07:29.273Z,54.25
2017-03-01T11:08:28.999Z,54.22
2017-03-01T11:09:28.159Z,54.06
2017-03-01T11:10:22.410Z,54.17
2017-03-01T11:11:29.277Z,54.07
2017-03-01T11:12:31.360Z,53.31
2017-03-01T11:13:28.495Z,53.94
2017-03-01T11:14:28.628Z,54.16
2017-03-01T11:15:27.588Z,53.87
2017-03-01T11:16:29.767Z,54.02
2017-03-01T11:17:24.483Z,53.61
2017-03-01T11:18:27.577Z,54.04
2017-03-01T11:19:28.724Z,53.77
2017-03-01T11:20:32.996Z,54.26
2017-03-01T11:21:28.116Z,54.87
2017-03-01T11:22:32.723Z,54.83
2017-03-01T11:23:28.780Z,54.90
2017-03-01T11:24:28.904Z,55.00
2017-03-01T11:25:24.972Z,54.66
2017-03-01T11:26:28.594Z,53.69
2017-03-01T11:27:28.343Z,53.70
2017-03-01T11:28:28.389Z,54.01
2017-03-01T11:29:24.016Z,53.36
2017-03-01T11:30:38.011Z,53.56
2017-03-01T11:31:27.852Z,53.32
2017-03-01T11:32:29.012Z,53.50
2017-03-01T11:33:43.290Z,53.42
2017-03-01T11:34:22.754Z,52.53
2017-03-01T11:35:28.029Z,52.27
2017-03-01T11:36:33.415Z,51.84
2017-03-01T11:37:29.350Z,51.28
2017-03-01T11:38:23.980Z,51.71
2017-03-01T11:39:28.242Z,52.05
2017-03-01T11:40:28.393Z,51.31
2017-03-01T11:41:30.401Z,51.60
2017-03-01T11:42:28.581Z,51.65
2017-03-01T11:43:36.749Z,50.77
2017-03-01T11:44:30.841Z,50.62
2017-03-01T11:45:29.969Z,51.11
2017-03-01T11:46:22.821Z,50.85
2017-03-01T11:47:33.377Z,51.47
2017-03-01T11:48:28.281Z,50.35
2017-03-01T11:49:33.628Z,50.55
2017-03-01T11:50:37.079Z,50.51
2017-03-01T11:51:28.229Z,51.05
2017-03-01T11:52:27.892Z,50.91
2017-03-01T11:53:28.676Z,51.23
2017-03-01T11:54:28.279Z,51.80
2017-03-01T11:55:23.924Z,51.25
2017-03-01T11:56:29.939Z,51.36
2017-03-01T11:57:23.675Z,51.52
2017-03-01T11:58:29.792Z,51.87
2017-03-01T11:59:28.934Z,52.01
2017-03-01T12:00:28.829Z,52.60
2017-03-01T12:01:35.640Z,52.58
2017-03-01T12:02:28.152Z,51.56
2017-03-01T12:03:30.239Z,51.45
2017-03-01T12:04:28.027Z,51.12
2017-03-01T12:05:38.403Z,50.87
2017-03-01T12:06:32.796Z,50.94
2017-03-01T12:07:27.404Z,50.66
2017-03-01T12:08:28.536Z,50.67
2017-03-01T12:09:23.671Z,50.71
2017-03-01T12:10:29.328Z,50.37
2017-03-01T12:11:27.175Z,50.24
2017-03-01T12:12:31.525Z,50.09
2017-03-01T12:13:29.784Z,50.06
2017-03-01T12:14:34.041Z,50.60
2017-03-01T12:15:28.159Z,49.85
2017-03-01T12:16:24.643Z,49.29
2017-03-01T12:17:29.047Z,49.32
2017-03-01T12:18:13.046Z,49.62
2017-03-01T12:19:37.752Z,49.73
2017-03-01T12:20:28.334Z,50.23
2017-03-01T12:21:25.661Z,49.78
2017-03-01T12:22:34.600Z,49.91
2017-03-01T12:23:34.773Z,49.18
2017-03-01T12:24:29.902Z,49.56
2017-03-01T12:25:27.735Z,50.01
2017-03-01T12:26:28.467Z,50.03
2017-03-01T12:27:23.759Z,49.93
2017-03-01T12:28:28.199Z,49.77
2017-03-01T12:29:18.321Z,49.78
2017-03-01T12:30:29.218Z,50.02
2017-03-01T12:31:28.338Z,49.75
2017-03-01T12:32:28.460Z,50.08
2017-03-01T12:33:25.931Z,50.30
2017-03-01T12:34:29.034Z,49.86
2017-03-01T12:35:25.371Z,50.57
2017-03-01T12:36:28.487Z,50.88
2017-03-01T12:37:28.250Z,50.43
2017-03-01T12:38:24.118Z,50.65
2017-03-01T12:39:29.645Z,50.60
2017-03-01T12:40:29.838Z,50.30
2017-03-01T12:41:29.291Z,50.81
2017-03-01T12:42:26.014Z,49.79
2017-03-01T12:43:26.019Z,49.70
2017-03-01T12:44:33.034Z,49.40
2017-03-01T12:45:33.050Z,49.54
2017-03-01T12:46:29.649Z,49.68
2017-03-01T12:47:28.279Z,49.28
2017-03-01T12:48:26.132Z,48.75
2017-03-01T12:49:28.871Z,49.06
2017-03-01T12:50:29.453Z,49.06
2017-03-01T12:51:12.453Z,49.00
2017-03-01T12:52:18.616Z,49.04
2017-03-01T12:53:25.194Z,49.04
2017-03-01T12:54:28.314Z,48.43
2017-03-01T12:55:28.480Z,48.71
2017-03-01T12:56:29.033Z,47.93
2017-03-01T12:57:28.152Z,48.45
2017-03-01T12:58:29.569Z,47.86
2017-03-01T12:59:28.662Z,47.85
2017-03-01T13:00:28.507Z,48.41
2017-03-01T13:01:29.548Z,48.14
2017-03-01T13:02:28.711Z,47.71